Historyczne dane pomiarowe

Dodano dane terminowe – wersja testowa.

Dane z okresu 1951-2019

Wersja bazy: 1.34 [2019-03-16, lista zmian], aktualizacja planowana na 2019-04-15

Dane meteo z obszaru Polski uzyskane na podstawie danych udostępnionych przez Instytut Meteorologii i Gospodarki Wodnej – Państwowy Instytut Badawczy.

 

Wybierz Datę:    

       

TemperaturaWilgotnośćWiatrCiśnienieOpadyŚniegCzas trwania zjawisk
 Stacja t tx tn tng RH VA  wxwx mslp ppp RRR   cm mm wxwxwxwxwxwxwx
1994-08-14 14.7 19.0 10.9 9.1 68.8- 5.0 2.0---- 0.0------------
1994-08-13 15.8 22.4 13.9 13.5 90.0- 8.0 2.7---- 1.8------------
1994-08-12 17.6 19.8 14.8 13.6 93.8- 8.0 1.3---- 10.0------------
1994-08-11 18.6 23.7 17.2 15.9 83.0- 8.0 0.7---- 6.8------------
1994-08-10 21.3 27.8 13.3 11.3 75.3- 7.0 2.3---- 0.0------------
1994-08-09 19.2 22.9 16.6 15.7 94.0- 7.3 1.3---- 9.8------------
1994-08-08 21.2 25.5 18.8 11.7 84.3- 7.7 1.3---- 26.1------------
1994-08-07 23.0 29.7 15.9 13.5 71.3- 7.3 1.3---- 4.7------------
1994-08-06 25.4 32.7 17.8 13.6 56.8- 7.0 2.3---- 0.0------------
1994-08-05 24.9 33.0 13.1 10.3 59.8- 7.0 1.3---- 0.0------------
1994-08-04 22.6 30.2 14.2 10.8 61.8- 6.0 1.3---- 0.0------------
1994-08-03 23.9 29.7 18.5 16.9 68.0- 7.3 2.0---- 0.0------------
1994-08-02 26.8 33.7 23.2 18.8 60.0- 7.0 2.0---- 0.0------------
1994-08-01 28.4 37.1 19.2 15.4 53.3- 7.0 2.3---- 0.8------------
1994-07-31 27.6 36.6 16.8 12.8 51.5- 7.0 2.3---- 0.0------------
1994-07-30 26.9 36.7 15.7 12.6 56.0- 7.0 1.0---- 0.0------------
1994-07-29 27.1 35.7 17.1 12.4 53.0- 7.0 0.7---- 0.0------------
1994-07-28 25.8 35.2- 10.2 56.0- 6.0 1.0---- 0.0------------
1994-07-27 26.1 34.7-- 51.0- 7.3 0.7---- 0.0------------
1994-07-26 25.3 34.6-- 53.5- 7.3 1.0---- 0.0------------
1994-07-25 25.1 33.2-- 59.0- 6.3 2.0---- 0.0------------
1994-07-24 23.8 31.6- 9.3 60.0- 4.7 1.0---- 0.0------------
1994-07-23 22.9 30.2- 6.0 63.8- 3.7 0.7---- 0.0------------
1994-07-22 22.0 29.9- 6.1 61.0- 4.0 2.7---- 0.0------------
1994-07-21 20.6 28.3- 5.1 61.5- 3.0 0.7---- 0.0------------
1994-07-20 18.5 24.8- 4.7 68.0- 5.3 1.7---- 0.0------------
1994-07-19 19.2 25.1- 11.6 68.0- 7.3 2.7---- 0.0------------
1994-07-18 20.2 25.9- 11.1 81.0- 7.7 0.7---- 0.0------------
1994-07-17 21.2 28.3- 13.0 85.0- 8.0 1.3---- 2.2------------
1994-07-16 22.0 29.8- 11.5 77.3- 7.7 2.3---- 4.4------------
1994-07-15 23.6 29.8- 11.9 63.3- 6.7 1.3---- 0.0------------
1994-07-14 23.7 31.4- 9.7 66.8- 6.3 1.3---- 0.0------------
1994-07-13 22.7 28.8- 10.1 65.0- 7.0 2.0---- 0.0------------
1994-07-12 22.0 27.4 13.1 12.5 72.3- 5.0 2.3---- 0.0------------
1994-07-11 21.4 27.8 13.1 8.9 66.3- 6.7 2.0---- 0.0------------
1994-07-10 18.7 24.6 12.1 9.6 81.3- 7.3 2.3---- 0.0------------
1994-07-09 14.7 16.7 12.7 9.6 96.5- 8.0 2.0---- 14.7------------
1994-07-08 15.2 19.1 12.2 12.2 85.8- 8.0 3.3---- 13.9------------
1994-07-07 18.8 26.2 11.5 7.5 74.8- 7.3 2.3---- 3.0------------
1994-07-06 21.2 27.9 13.3 8.6 70.8- 7.0 2.0---- 0.0------------
1994-07-05 20.7 26.1 13.1 9.9 68.0- 7.7 2.0---- 0.0------------
1994-07-04 21.9 30.6- 8.2 63.3- 5.7 1.0---- 0.0------------
1994-07-03 21.0 28.3- 5.9 60.5- 4.3 1.3---- 0.0------------
1994-07-02 18.9 26.4 9.8 4.8 67.3- 7.0 1.3---- 0.0------------
1994-07-01 17.8 24.5 9.3 5.5 69.5- 3.7 2.0---- 0.0------------
1994-06-30 20.7 29.4 16.8 14.6 86.0- 7.7 2.3---- 4.7------------
1994-06-29 26.3 34.6 17.1 13.4 68.5- 7.7 1.0---- 0.0------------
1994-06-28 25.4 31.8 18.5 13.9 69.0- 7.7 1.7---- 0.0------------
1994-06-27 24.6 32.4 15.5 11.4 62.8- 7.7 1.7---- 0.0------------
1994-06-26 22.6 31.3 8.1 3.9 56.8- 5.7 1.7---- 0.0------------
1994-06-25 17.0 25.6 4.0 0.2 56.8- 2.3 2.0---- 0.0------------
1994-06-24 14.8 20.4 6.6 5.7 63.0- 2.0 2.7---- 0.0------------
1994-06-23 17.1 21.6 13.6 10.6 56.5- 5.0 3.7---- 0.0------------
1994-06-22 18.9 25.7 10.5 7.0 74.3- 7.3 2.0---- 0.0------------
1994-06-21 16.3 22.2 6.7 4.5 68.5- 7.7 1.7---- 0.0------------
1994-06-20 16.8 20.5 12.9 9.2 74.8- 6.7 2.3---- 0.0------------
1994-06-19 17.4 25.1 12.1 10.5 79.0- 7.0 2.7---- 0.0------------
1994-06-18 12.1 19.4 4.0 3.0 79.8- 7.7 2.3---- 6.2------------
1994-06-17 11.1 14.2 7.6 4.5 78.3- 7.0 2.7---- 0.0------------
1994-06-16 11.2 14.8 7.7 1.7 76.5- 8.0 3.7---- 2.7------------
268.3 ms

 

Źródłem pochodzenia danych jest Instytut Meteorologii i Gospodarki Wodnej – Państwowy Instytut Badawczy. Dane Instytutu Meteorologii i Gospodarki Wodnej – Państwowego Instytutu Badawczego zostały przetworzone.

Dane źródłowe można odnaleźć na stronie https://dane.imgw.pl